North Baldwin, New York
Current Conditions -  °F | °C
As of 6:51 PM on Friday 24 Oct 2014 (Local Time) from KJFK Reporting Station
Broken Clouds Broken Clouds  
Wind Chill: 56°   Ceiling: 25000
Heat Index: 56°   Visibility: 10mi
Dew Point: 45°   Wind: 5mph
Humidity: 67%   Direction: 60°ENE
Pressure: 29.8"   Gusts: NA
Location:  40.6539°N, 73.609°W
Report Text: KJFK 242251Z 06004KT 10SM FEW049 SCT120 BKN250 13/07 A2980 RMK AO2 SLP091 T01330072
Loading
Personal Weather Stations






























Interactive Weather Map
Tropical Storm Tracking
New forecast layout! Learn more

10-Day Weather Forecast

Advertisements
Track Severe Weather on mobile